地図

経路データ

SID SEASON NUMBER BASIN SUBBASIN NAME ISO_TIME NATURE LAT LON WMO_WIND WMO_PRES WMO_AGENCY TRACK_TYPE DIST2LAND LANDFALL IFLAG USA_AGENCY USA_ATCF_ID USA_LAT USA_LON USA_RECORD USA_STATUS USA_WIND USA_PRES USA_SSHS USA_R34_NE USA_R34_SE USA_R34_SW USA_R34_NW USA_R50_NE USA_R50_SE USA_R50_SW USA_R50_NW USA_R64_NE USA_R64_SE USA_R64_SW USA_R64_NW USA_POCI USA_ROCI USA_RMW USA_EYE TOKYO_LAT TOKYO_LON TOKYO_GRADE TOKYO_WIND TOKYO_PRES TOKYO_R50_DIR TOKYO_R50_LONG TOKYO_R50_SHORT TOKYO_R30_DIR TOKYO_R30_LONG TOKYO_R30_SHORT TOKYO_LAND CMA_LAT CMA_LON CMA_CAT CMA_WIND CMA_PRES HKO_LAT HKO_LON HKO_CAT HKO_WIND HKO_PRES NEWDELHI_LAT NEWDELHI_LON NEWDELHI_GRADE NEWDELHI_WIND NEWDELHI_PRES NEWDELHI_CI NEWDELHI_DP NEWDELHI_POCI REUNION_LAT REUNION_LON REUNION_TYPE REUNION_WIND REUNION_PRES REUNION_TNUM REUNION_CI REUNION_RMW REUNION_R34_NE REUNION_R34_SE REUNION_R34_SW REUNION_R34_NW REUNION_R50_NE REUNION_R50_SE REUNION_R50_SW REUNION_R50_NW REUNION_R64_NE REUNION_R64_SE REUNION_R64_SW REUNION_R64_NW BOM_LAT BOM_LON BOM_TYPE BOM_WIND BOM_PRES BOM_TNUM BOM_CI BOM_RMW BOM_R34_NE BOM_R34_SE BOM_R34_SW BOM_R34_NW BOM_R50_NE BOM_R50_SE BOM_R50_SW BOM_R50_NW BOM_R64_NE BOM_R64_SE BOM_R64_SW BOM_R64_NW BOM_ROCI BOM_POCI BOM_EYE BOM_POS_METHOD BOM_PRES_METHOD NADI_LAT NADI_LON NADI_CAT NADI_WIND NADI_PRES WELLINGTON_LAT WELLINGTON_LON WELLINGTON_WIND WELLINGTON_PRES DS824_LAT DS824_LON DS824_STAGE DS824_WIND DS824_PRES TD9636_LAT TD9636_LON TD9636_STAGE TD9636_WIND TD9636_PRES TD9635_LAT TD9635_LON TD9635_WIND TD9635_PRES TD9635_ROCI NEUMANN_LAT NEUMANN_LON NEUMANN_CLASS NEUMANN_WIND NEUMANN_PRES MLC_LAT MLC_LON MLC_CLASS MLC_WIND MLC_PRES USA_GUST BOM_GUST BOM_GUST_PER REUNION_GUST REUNION_GUST_PER USA_SEAHGT USA_SEARAD_NE USA_SEARAD_SE USA_SEARAD_SW USA_SEARAD_NW STORM_SPEED STORM_DIR
1965046N09140 1965 18 WP MM THELMA 1965-02-15 06:00:00 TS 8.50000 139.500 main 1116 1062 __O___________ -1 8.50000 139.500 0 1006 10 219
1965046N09140 1965 18 WP MM THELMA 1965-02-15 09:00:00 TS 8.09752 139.165 main 1062 1005 __P___________ -1 8.09752 139.165 0 1006 11 221
1965046N09140 1965 18 WP MM THELMA 1965-02-15 12:00:00 TS 7.70000 138.800 main 1005 948 __O___________ -1 7.70000 138.800 0 1006 11 225
1965046N09140 1965 18 WP MM THELMA 1965-02-15 15:00:00 TS 7.32002 138.393 main 948 903 __P___________ -1 7.32002 138.393 0 1005 11 229
1965046N09140 1965 18 WP MM THELMA 1965-02-15 18:00:00 TS 7.00000 138.000 main 903 872 __O___________ -1 7.00000 138.000 0 1005 9 232
1965046N09140 1965 18 WP MM THELMA 1965-02-15 21:00:00 TS 6.77745 137.685 main 872 842 __P___________ -1 6.77745 137.685 0 1005 7 236
1965046N09140 1965 18 WP MM THELMA 1965-02-16 00:00:00 TS 6.60000 137.400 main 842 812 __O___________ -1 6.60000 137.400 0 1005 7 235
1965046N09140 1965 18 WP MM THELMA 1965-02-16 03:00:00 TS 6.36998 137.100 main 812 784 __P___________ -1 6.36998 137.100 0 1005 7 236
1965046N09140 1965 18 WP MM THELMA 1965-02-16 06:00:00 TS 6.20000 136.800 main 784 779 __O___________ -1 6.20000 136.800 0 1005 6 251
1965046N09140 1965 18 WP MM THELMA 1965-02-16 09:00:00 TS 6.16997 136.508 main 779 776 __P___________ -1 6.16997 136.508 0 1005 6 270
1965046N09140 1965 18 WP MM THELMA 1965-02-16 12:00:00 TS 6.20000 136.200 main 776 773 __O___________ -1 6.20000 136.200 0 1005 7 273
1965046N09140 1965 18 WP MM THELMA 1965-02-16 15:00:00 TS 6.20752 135.843 main 773 773 __P___________ -1 6.20752 135.843 0 1005 7 270
1965046N09140 1965 18 WP MM THELMA 1965-02-16 18:00:00 TS 6.20000 135.500 main 773 773 __O___________ -1 6.20000 135.500 0 1005 6 265
1965046N09140 1965 18 WP MM THELMA 1965-02-16 21:00:00 TS 6.14997 135.227 main 762 761 __P___________ -1 6.14997 135.227 0 1004 5 259
1965046N09140 1965 18 WP MM THELMA 1965-02-17 00:00:00 TS 6.10000 135.000 main 761 755 __O___________ -1 6.10000 135.000 0 1004 4 263
1965046N09140 1965 18 WP MM THELMA 1965-02-17 03:00:00 TS 6.09997 134.800 main 755 749 __P___________ -1 6.09997 134.800 0 1004 4 270
1965046N09140 1965 18 WP MM THELMA 1965-02-17 06:00:00 TS 6.10000 134.600 main 749 733 __O___________ -1 6.10000 134.600 0 1004 4 261
1965046N09140 1965 18 WP MM THELMA 1965-02-17 09:00:00 TS 6.02750 134.357 main 733 716 __P___________ -1 6.02750 134.357 0 1004 5 259
1965046N09140 1965 18 WP MM THELMA 1965-02-17 12:00:00 TS 6.00000 134.100 main 716 704 __O___________ -1 6.00000 134.100 0 1004 5 279
1965046N09140 1965 18 WP MM THELMA 1965-02-17 15:00:00 TS 6.11250 133.843 main 695 690 __P___________ -1 6.11250 133.843 0 1003 6 301
1965046N09140 1965 18 WP MM THELMA 1965-02-17 18:00:00 TS 6.30000 133.600 main 690 680 __O___________ -1 6.30000 133.600 0 1002 6 310
1965046N09140 1965 18 WP MM THELMA 1965-02-17 21:00:00 TS 6.48497 133.400 main 687 687 __P___________ -1 6.48497 133.400 0 1002 4 345
1965046N09140 1965 18 WP MM THELMA 1965-02-18 00:00:00 TS 6.65000 133.500 main 710 693 O_O______OOO__ jtwc_wp WP041965 6.60000 133.800 25 -1 6.70000 133.200 1 29 1002 6.60000 133.800 TC 25 6.60000 133.800 1 25 6.60000 133.800 25 1003 120 4 325
1965046N09140 1965 18 WP MM THELMA 1965-02-18 03:00:00 TS 6.78073 133.190 main 693 670 P_P______PPP__ WP041965 6.71510 133.295 27 -1 6.93497 132.972 1 29 1002 6.71510 133.295 TC 27 6.66916 133.308 1 28 6.71510 133.295 27 1002 120 8 288
1965046N09140 1965 18 WP MM THELMA 1965-02-18 06:00:00 TS 6.88361 132.763 main 670 641 O_OO_____OPO__ jtwc_wp WP041965 6.80000 132.800 30 -1 7.20000 132.700 1 29 1002 6.80000 132.500 TD 25 1004 6.80000 132.800 TC 30 6.74046 132.823 1 32 6.80000 132.800 30 1002 120 9 282
1965046N09140 1965 18 WP MM THELMA 1965-02-18 09:00:00 TS 6.96776 132.329 main 630 585 P_PP_____PPP__ WP041965 6.84247 132.327 35 0 7.52998 132.373 1 29 1002 6.89753 132.208 TD 27 1003 6.84247 132.327 TC 35 6.81652 132.351 1 36 6.84247 132.327 35 1002 90 9 282
1965046N09140 1965 18 WP MM THELMA 1965-02-18 12:00:00 TS 7.06957 131.917 main 585 552 O_OO_____OOO__ jtwc_wp WP041965 6.90000 131.900 40 0 7.80000 132.000 1 29 1002 7.00000 131.900 TD 30 1002 6.90000 131.900 TC 40 6.90000 131.900 2 40 6.90000 131.900 40 1002 60 8 286
1965046N09140 1965 18 WP MM THELMA 1965-02-18 15:00:00 TS 7.18955 131.547 main 541 507 P_PP_____PPP__ WP041965 7.04990 131.550 40 0 7.88752 131.592 1 29 1002 7.10747 131.565 TD 30 1002 7.04990 131.550 TC 40 6.99264 131.474 2 40 7.04990 131.550 40 1002 90 8 287
1965046N09140 1965 18 WP MM THELMA 1965-02-18 18:00:00 TS 7.29871 131.178 main 507 463 O_OO_____OPO__ jtwc_wp WP041965 7.20000 131.200 40 0 7.90000 131.200 1 29 1002 7.20000 131.200 TD 30 1002 7.20000 131.200 TC 40 7.09228 131.070 2 40 7.20000 131.200 40 1002 120 8 282
1965046N09140 1965 18 WP MM THELMA 1965-02-18 21:00:00 TS 7.35887 130.777 main 463 419 P_PP_____PPP__ WP041965 7.25747 130.772 40 0 7.94247 130.870 1 29 1001 7.24252 130.792 TD 30 1002 7.25747 130.772 TC 40 7.19579 130.681 2 40 7.25747 130.772 40 1003 150 8 279
1965046N09140 1965 18 WP MM THELMA 1965-02-19 00:00:00 TS 7.42174 130.365 main 419 375 O_OO_____OOO__ jtwc_wp WP041965 7.30000 130.300 40 0 8.00000 130.600 1 29 1000 7.30000 130.400 TD 30 1002 7.30000 130.300 TC 40 7.30000 130.300 2 40 7.30000 130.300 40 1004 180 9 281
1965046N09140 1965 18 WP MM THELMA 1965-02-19 03:00:00 TS 7.52206 129.935 main 364 330 P_PP_____PPP__ WP041965 7.39257 129.770 35 0 8.07748 130.370 1 29 1000 7.42750 130.078 TD 27 1003 7.39257 129.770 TC 35 7.40236 129.923 2 36 7.39257 129.770 35 1004 180 8 288
1965046N09140 1965 18 WP MM THELMA 1965-02-19 06:00:00 TS 7.67108 129.585 main 330 308 O_OO_____OPO__ jtwc_wp WP041965 7.50000 129.300 30 -1 8.20000 130.200 1 29 1000 7.60000 129.800 TD 25 1004 7.50000 129.300 TC 30 7.50279 129.548 2 32 7.50000 129.300 30 1004 180 6 302
1965046N09140 1965 18 WP MM THELMA 1965-02-19 09:00:00 TS 7.86319 129.384 main 309 298 P_P______PPP__ WP041965 7.60244 128.997 27 -1 8.38499 130.070 1 1002 TD 7.60244 128.997 TC 27 7.60182 129.174 2 28 7.60244 128.997 27 1004 180 5 327
1965046N09140 1965 18 WP MM THELMA 1965-02-19 12:00:00 TS 8.08571 129.314 main 301 301 O_O______OOO__ jtwc_wp WP041965 7.70000 128.800 25 -1 8.60000 130.000 0 1004 7.70000 128.800 TC 25 7.70000 128.800 1 25 7.70000 128.800 25 1005 180 11 32
1965046N09140 1965 18 WP MM THELMA 1965-02-19 15:00:00 TS 8.80500 129.985 main 394 394 __P___________ WP041965 -1 8.80500 129.985 0 1004 TC 1 11 37
1965046N09140 1965 18 WP MM THELMA 1965-02-19 18:00:00 TS 9.00000 130.000 main 401 __O___________ -1 9.00000 130.000 0 1004 1 4 0

デジタル台風データ・検索

IBTrACS Databaseについて

本データベースは、米国NOAAが公開する1842年以降の世界の熱帯低気圧のベストトラックデータアーカイブInternational Best Track Archive for Climate Stewardship (IBTrACS)を、ウェブで閲覧しやすい形式に変換したものです。

最終更新日:2021-11-26